Time;durP1;ratioP1;P1;durP2;ratioP2;P2;SDS_P1;SDS_P2;PMS_P1;PMS_P2;Temp;Humidity;BMP_temperature;BMP_pressure;BME280_temperature;BME280_humidity;BME280_pressure;Samples;Min_cycle;Max_cycle;Signal;HPM_P1;HPM_P2
2024/01/07 00:08:53;;;;;;;16.20;6.55;;;;;;;-147.20;100.00;63046.97;32191735;27;34576;-65
2024/01/07 00:23:53;;;;;;;11.02;5.80;;;;;;;-147.20;100.00;63046.97;32195950;27;20023;-67
2024/01/07 00:38:53;;;;;;;10.45;6.35;;;;;;;-147.20;100.00;63046.97;32194781;27;20536;-66
2024/01/07 00:53:53;;;;;;;11.57;4.93;;;;;;;-147.20;100.00;63046.97;32191636;27;34931;-64
2024/01/07 01:08:54;;;;;;;8.73;5.75;;;;;;;-147.20;100.00;63046.97;32190369;27;33398;-69
2024/01/07 01:23:54;;;;;;;9.50;5.68;;;;;;;-147.20;100.00;63046.97;32189903;27;34597;-64
2024/01/07 01:38:54;;;;;;;8.35;4.53;;;;;;;-147.20;100.00;63046.97;32092349;27;34245;-65
2024/01/07 01:53:57;;;;;;;11.25;4.90;;;;;;;-147.20;100.00;63046.97;32056164;27;35879;-66
2024/01/07 02:08:58;;;;;;;11.65;5.43;;;;;;;-147.20;100.00;63046.97;32056411;27;20057;-66
2024/01/07 02:23:58;;;;;;;9.35;5.15;;;;;;;-147.20;100.00;63046.97;32054256;27;20063;-65
2024/01/07 02:38:58;;;;;;;9.40;5.03;;;;;;;-147.20;100.00;63046.97;32052598;27;34439;-65
2024/01/07 02:53:59;;;;;;;9.50;4.82;;;;;;;-147.20;100.00;63046.97;32050408;27;33795;-64
2024/01/07 03:08:59;;;;;;;10.20;5.43;;;;;;;-147.20;100.00;63046.97;32050379;27;20559;-65
2024/01/07 03:23:59;;;;;;;12.18;5.85;;;;;;;-147.20;100.00;63046.97;32048626;27;20126;-66
2024/01/07 03:39:00;;;;;;;9.75;5.20;;;;;;;-147.20;100.00;63046.97;32047130;27;20035;-65
2024/01/07 03:54:00;;;;;;;10.70;5.80;;;;;;;-147.20;100.00;63046.97;32045543;27;20047;-65
2024/01/07 04:09:00;;;;;;;9.48;4.93;;;;;;;-147.20;100.00;63046.97;32043187;27;34457;-65
2024/01/07 04:24:01;;;;;;;10.80;5.10;;;;;;;-147.20;100.00;63046.97;32042512;27;20080;-67
2024/01/07 04:39:01;;;;;;;10.65;5.40;;;;;;;-147.20;100.00;63046.97;32040617;27;20488;-65
2024/01/07 04:54:02;;;;;;;7.95;4.53;;;;;;;-147.20;100.00;63046.97;32054256;27;20077;-65
2024/01/07 05:09:02;;;;;;;7.78;4.55;;;;;;;-147.20;100.00;63046.97;32060367;27;20107;-66
2024/01/07 05:24:03;;;;;;;8.25;4.10;;;;;;;-147.20;100.00;63046.97;32058627;27;20035;-64
2024/01/07 05:39:04;;;;;;;6.53;3.97;;;;;;;-147.20;100.00;63046.97;32055819;27;20027;-64
2024/01/07 05:54:04;;;;;;;6.68;4.38;;;;;;;-147.20;100.00;63046.97;32053789;27;20034;-65
2024/01/07 06:09:04;;;;;;;6.88;3.97;;;;;;;-147.20;100.00;63046.97;32052581;27;23656;-67
2024/01/07 06:24:05;;;;;;;4.65;3.60;;;;;;;-147.20;100.00;63046.97;32050759;27;34789;-64
2024/01/07 06:39:05;;;;;;;6.70;3.55;;;;;;;-147.20;100.00;63046.97;32050353;27;20031;-66
2024/01/07 06:54:05;;;;;;;5.00;3.30;;;;;;;-147.20;100.00;63046.97;32047204;27;33485;-64
2024/01/07 07:09:05;;;;;;;4.63;2.70;;;;;;;-147.20;100.00;63046.97;32045108;27;34530;-67
2024/01/07 07:24:06;;;;;;;7.53;3.25;;;;;;;-147.20;100.00;63046.97;32044678;27;34631;-66
2024/01/07 07:39:06;;;;;;;5.15;2.72;;;;;;;-147.20;100.00;63046.97;32043908;27;20540;-67
2024/01/07 07:54:07;;;;;;;4.00;2.05;;;;;;;-147.20;100.00;63046.97;32043238;27;20038;-64
2024/01/07 08:09:07;;;;;;;4.00;2.05;;;;;;;-147.20;100.00;63046.97;32043050;27;20387;-65
2024/01/07 08:24:07;;;;;;;3.95;2.67;;;;;;;-147.20;100.00;63046.97;32048718;27;34430;-64
2024/01/07 08:39:08;;;;;;;3.65;2.58;;;;;;;-147.20;100.00;63046.97;32062034;27;20080;-65
2024/01/07 08:54:08;;;;;;;4.38;2.75;;;;;;;-147.20;100.00;63046.97;32058807;27;20032;-66
2024/01/07 09:09:08;;;;;;;3.90;2.78;;;;;;;-147.20;100.00;63046.97;32056868;27;34638;-66
2024/01/07 09:24:10;;;;;;;4.93;3.30;;;;;;;-147.20;100.00;63046.97;32057881;27;20051;-65
2024/01/07 09:39:10;;;;;;;5.72;3.13;;;;;;;-147.20;100.00;63046.97;32055569;27;20096;-66
2024/01/07 09:54:14;;;;;;;6.13;3.35;;;;;;;-147.20;100.00;63046.97;32053365;27;34614;-68
2024/01/07 10:09:15;;;;;;;6.50;3.00;;;;;;;-147.20;100.00;63046.97;32053003;27;20028;-64
2024/01/07 10:24:16;;;;;;;6.55;3.33;;;;;;;-147.20;100.00;63046.97;32052848;27;20043;-67
2024/01/07 10:39:16;;;;;;;6.88;3.25;;;;;;;-147.20;100.00;63046.97;32049879;27;20031;-68
2024/01/07 10:54:19;;;;;;;4.43;2.78;;;;;;;-147.20;100.00;63046.97;32046901;27;20077;-65
2024/01/07 11:09:37;;;;;;;6.65;3.40;;;;;;;-147.20;100.00;63046.97;32046195;27;20035;-65
2024/01/07 11:24:38;;;;;;;6.70;3.90;;;;;;;-147.20;100.00;63046.97;32043846;27;20142;-66
2024/01/07 11:39:42;;;;;;;8.82;4.20;;;;;;;-147.20;100.00;63046.97;32042276;27;20165;-66
2024/01/07 11:54:42;;;;;;;11.03;4.67;;;;;;;-147.20;100.00;63046.97;32044680;27;20027;-67
2024/01/07 12:09:43;;;;;;;11.50;4.55;;;;;;;-147.20;100.00;63046.97;32065877;27;20792;-65
2024/01/07 12:24:44;;;;;;;7.88;4.63;;;;;;;-147.20;100.00;63046.97;32064308;27;34706;-65
2024/01/07 12:39:44;;;;;;;7.68;4.68;;;;;;;-147.20;100.00;63046.97;32060683;27;20051;-65
2024/01/07 12:54:45;;;;;;;8.18;5.13;;;;;;;-147.20;100.00;63046.97;32059585;27;21001;-67
2024/01/07 13:09:45;;;;;;;10.13;5.60;;;;;;;-147.20;100.00;63046.97;32057623;27;20035;-65
2024/01/07 13:24:45;;;;;;;10.80;5.22;;;;;;;-147.20;100.00;63046.97;32057300;27;34785;-66
2024/01/07 13:39:46;;;;;;;8.90;5.05;;;;;;;-147.20;100.00;63046.97;32055036;27;25220;-65
2024/01/07 13:54:47;;;;;;;7.97;5.05;;;;;;;-147.20;100.00;63046.97;32055039;27;20777;-65
2024/01/07 14:09:47;;;;;;;14.85;5.93;;;;;;;-147.20;100.00;63046.97;32055821;27;20023;-66
2024/01/07 14:24:49;;;;;;;16.23;5.28;;;;;;;-147.20;100.00;63046.97;32050510;27;34566;-66
2024/01/07 14:39:49;;;;;;;12.00;5.60;;;;;;;-147.20;100.00;63046.97;32047857;27;20137;-64
2024/01/07 14:54:49;;;;;;;13.60;5.65;;;;;;;-147.20;100.00;63046.97;32046707;27;34771;-67
2024/01/07 15:09:49;;;;;;;11.05;6.07;;;;;;;-147.20;100.00;63046.97;32044775;27;33522;-65
2024/01/07 15:24:50;;;;;;;9.15;5.35;;;;;;;-147.20;100.00;63046.97;32044774;27;20076;-64
2024/01/07 15:39:51;;;;;;;13.65;6.70;;;;;;;-147.20;100.00;63046.97;32042979;27;20051;-67
2024/01/07 15:54:51;;;;;;;12.50;7.57;;;;;;;-147.20;100.00;63046.97;32043578;27;20024;-66
2024/01/07 16:09:51;;;;;;;14.25;8.82;;;;;;;-147.20;100.00;63046.97;32041755;27;34760;-66
2024/01/07 16:24:52;;;;;;;20.13;8.05;;;;;;;-147.20;100.00;63046.97;32040014;27;35673;-65
2024/01/07 16:39:52;;;;;;;17.48;9.68;;;;;;;-147.20;100.00;63046.97;32037977;27;34571;-65
2024/01/07 16:54:52;;;;;;;23.02;8.75;;;;;;;-147.20;100.00;63046.97;32059602;27;35932;-65
2024/01/07 17:09:52;;;;;;;10.75;7.55;;;;;;;-147.20;100.00;63046.97;32059124;27;34421;-65
2024/01/07 17:24:53;;;;;;;18.25;8.88;;;;;;;-147.20;100.00;63046.97;32056486;27;33615;-65
2024/01/07 17:39:54;;;;;;;19.17;10.50;;;;;;;-147.20;100.00;63046.97;32054953;27;20568;-65
2024/01/07 17:54:56;;;;;;;12.55;7.40;;;;;;;-147.20;100.00;63046.97;32055057;27;20281;-65
2024/01/07 18:09:56;;;;;;;13.85;8.02;;;;;;;-147.20;100.00;63046.97;32051969;27;20029;-65
2024/01/07 18:24:56;;;;;;;14.25;7.13;;;;;;;-147.20;100.00;63046.97;32050938;27;34607;-65
2024/01/07 18:39:57;;;;;;;15.80;8.18;;;;;;;-147.20;100.00;63046.97;32048005;27;35541;-65
2024/01/07 18:54:58;;;;;;;15.55;7.65;;;;;;;-147.20;100.00;63046.97;32048463;27;20027;-65
2024/01/07 19:09:58;;;;;;;12.27;8.05;;;;;;;-147.20;100.00;63046.97;32046362;27;20031;-67
2024/01/07 19:24:58;;;;;;;11.88;6.82;;;;;;;-147.20;100.00;63046.97;32044743;27;20542;-67
2024/01/07 19:40:01;;;;;;;18.02;7.70;;;;;;;-147.20;100.00;63046.97;32041557;27;31265;-66
2024/01/07 19:55:02;;;;;;;10.50;6.55;;;;;;;-147.20;100.00;63046.97;32041901;27;20029;-66
2024/01/07 20:10:03;;;;;;;16.45;9.07;;;;;;;-147.20;100.00;63046.97;32041222;27;20039;-66
2024/01/07 20:25:07;;;;;;;10.32;7.28;;;;;;;-147.20;100.00;63046.97;32056668;27;20112;-65
2024/01/07 20:40:09;;;;;;;18.50;8.82;;;;;;;-147.20;100.00;63046.97;32061924;27;20401;-64
2024/01/07 20:55:09;;;;;;;21.85;10.45;;;;;;;-147.20;100.00;63046.97;32061366;27;20043;-65
2024/01/07 21:10:09;;;;;;;15.18;8.73;;;;;;;-147.20;100.00;63046.97;32058638;27;20058;-65
2024/01/07 21:25:13;;;;;;;19.85;9.30;;;;;;;-147.20;100.00;63046.97;32058504;27;25957;-66
2024/01/07 21:40:15;;;;;;;16.03;9.00;;;;;;;-147.20;100.00;63046.97;32057089;27;20040;-65
2024/01/07 21:55:15;;;;;;;15.63;8.25;;;;;;;-147.20;100.00;63046.97;32055789;27;20074;-66
2024/01/07 22:10:15;;;;;;;19.15;9.38;;;;;;;-147.20;100.00;63046.97;32053686;27;34551;-66
2024/01/07 22:25:16;;;;;;;13.68;7.95;;;;;;;-147.20;100.00;63046.97;32053126;27;36033;-66
2024/01/07 22:40:16;;;;;;;15.35;8.48;;;;;;;-147.20;100.00;63046.97;32050372;27;20039;-66
2024/01/07 22:55:16;;;;;;;13.43;8.07;;;;;;;-147.20;100.00;63046.97;32049648;27;35693;-66
2024/01/07 23:10:16;;;;;;;19.95;9.38;;;;;;;-147.20;100.00;63046.97;32048718;27;34584;-66
2024/01/07 23:25:17;;;;;;;12.77;8.05;;;;;;;-147.20;100.00;63046.97;32048119;27;20035;-66
2024/01/07 23:40:17;;;;;;;14.52;9.07;;;;;;;-147.20;100.00;63046.97;32047264;27;20508;-67
2024/01/07 23:55:17;;;;;;;16.80;10.25;;;;;;;-147.20;100.00;63046.97;32055670;27;35698;-66
